createdAt,value
2022-09-20T00:00:00.216Z,0
2022-09-20T00:05:00.305Z,0
2022-09-20T00:10:00.174Z,0
2022-09-20T00:15:00.171Z,0
2022-09-20T00:20:00.173Z,0
2022-09-20T00:25:00.172Z,0
2022-09-20T00:30:00.225Z,0
2022-09-20T00:35:00.160Z,0
2022-09-20T00:40:00.300Z,0
2022-09-20T00:45:00.158Z,0
2022-09-20T00:50:00.176Z,0
2022-09-20T00:55:00.195Z,0
2022-09-20T01:00:00.244Z,0
2022-09-20T01:05:00.177Z,0
2022-09-20T01:10:00.180Z,0
2022-09-20T01:15:00.202Z,0
2022-09-20T01:20:00.201Z,0
2022-09-20T01:25:00.173Z,0
2022-09-20T01:30:00.188Z,0
2022-09-20T01:35:00.178Z,0
2022-09-20T01:40:00.276Z,0
2022-09-20T01:45:00.181Z,0
2022-09-20T01:50:00.174Z,0
2022-09-20T01:55:00.183Z,0
2022-09-20T02:00:00.194Z,0
2022-09-20T02:05:00.165Z,0
2022-09-20T02:10:00.169Z,0
2022-09-20T02:15:00.185Z,0
2022-09-20T02:20:00.180Z,0
2022-09-20T02:25:00.174Z,0
2022-09-20T02:30:00.192Z,0
2022-09-20T02:35:00.182Z,0
2022-09-20T02:40:00.245Z,0
2022-09-20T02:45:00.178Z,0
2022-09-20T02:50:00.205Z,0
2022-09-20T02:55:00.175Z,0
2022-09-20T03:00:00.260Z,0
2022-09-20T03:05:00.191Z,0
2022-09-20T03:10:00.209Z,0
2022-09-20T03:15:00.179Z,0
2022-09-20T03:20:00.172Z,0
2022-09-20T03:25:00.185Z,0
2022-09-20T03:30:00.227Z,0
2022-09-20T03:35:00.193Z,0
2022-09-20T03:40:00.287Z,0
2022-09-20T03:45:00.218Z,0
2022-09-20T03:50:00.182Z,0
2022-09-20T03:55:00.156Z,0
2022-09-20T04:00:00.242Z,0
2022-09-20T04:05:00.182Z,0
2022-09-20T04:10:00.185Z,0
2022-09-20T04:15:00.184Z,0
2022-09-20T04:20:00.186Z,0
2022-09-20T04:25:00.183Z,0
2022-09-20T04:30:00.213Z,0
2022-09-20T04:35:00.180Z,0
2022-09-20T04:40:00.353Z,0
2022-09-20T04:45:00.178Z,0
2022-09-20T04:50:00.197Z,3
2022-09-20T04:55:00.170Z,6
2022-09-20T05:00:00.227Z,13
2022-09-20T05:05:00.192Z,26
2022-09-20T05:10:00.191Z,55
2022-09-20T05:15:00.187Z,91
2022-09-20T05:20:00.181Z,151
2022-09-20T05:25:00.190Z,242
2022-09-20T05:30:05.047Z,346
2022-09-20T05:35:00.190Z,492
2022-09-20T05:40:00.272Z,705
2022-09-20T05:45:00.185Z,1000
2022-09-20T05:50:00.194Z,1126
2022-09-20T05:55:00.197Z,1412
2022-09-20T06:00:00.226Z,1424
2022-09-20T06:05:00.197Z,1598
2022-09-20T06:10:00.202Z,1598
2022-09-20T06:15:00.198Z,1598
2022-09-20T06:20:00.176Z,1598
2022-09-20T06:25:00.183Z,1598
2022-09-20T06:30:00.181Z,1627
2022-09-20T06:35:00.187Z,1627
2022-09-20T06:40:00.233Z,1627
2022-09-20T06:45:00.183Z,1796
2022-09-20T06:50:00.184Z,2018
2022-09-20T06:55:00.192Z,2551
2022-09-20T07:00:00.209Z,2551
2022-09-20T07:05:00.186Z,3226
2022-09-20T07:10:00.176Z,3226
2022-09-20T07:15:00.183Z,3226
2022-09-20T07:20:00.176Z,3641
2022-09-20T07:25:00.191Z,4115
2022-09-20T07:30:00.161Z,4686
2022-09-20T07:35:00.176Z,4674
2022-09-20T07:40:00.286Z,4137
2022-09-20T07:45:00.175Z,4883
2022-09-20T07:50:00.199Z,4899
2022-09-20T07:55:00.180Z,5526
2022-09-20T08:00:00.204Z,5526
2022-09-20T08:05:00.179Z,5526
2022-09-20T08:10:00.173Z,6219
2022-09-20T08:15:00.172Z,7143
2022-09-20T08:20:00.193Z,6776
2022-09-20T08:25:00.175Z,7259
2022-09-20T08:30:00.177Z,7259
2022-09-20T08:35:00.211Z,7259
2022-09-20T08:40:00.478Z,6470
2022-09-20T08:45:00.652Z,6470
2022-09-20T08:50:00.657Z,6470
2022-09-20T08:55:00.189Z,7283
2022-09-20T09:00:00.216Z,7283
2022-09-20T09:05:00.184Z,7283
2022-09-20T09:10:00.169Z,7283
2022-09-20T09:15:00.184Z,7574
2022-09-20T09:20:00.189Z,9616
2022-09-20T09:25:00.166Z,9616
2022-09-20T09:30:00.184Z,10837
2022-09-20T09:35:00.184Z,10837
2022-09-20T09:40:00.281Z,10837
2022-09-20T09:45:00.158Z,7610
2022-09-20T09:50:02.895Z,8241
2022-09-20T09:55:02.687Z,8843
2022-09-20T10:00:01.774Z,8843
2022-09-20T10:05:00.169Z,8843
2022-09-20T10:10:00.209Z,9931
2022-09-20T10:15:00.168Z,7190
2022-09-20T10:20:00.192Z,9986
2022-09-20T10:25:00.184Z,12671
2022-09-20T10:30:00.189Z,9681
2022-09-20T10:35:00.165Z,12503
2022-09-20T10:40:00.341Z,12503
2022-09-20T10:45:00.159Z,12503
2022-09-20T10:50:00.179Z,11008
2022-09-20T10:55:00.209Z,7150
2022-09-20T11:00:00.210Z,7127
2022-09-20T11:05:00.177Z,10271
2022-09-20T11:10:00.203Z,11776
2022-09-20T11:15:00.170Z,13222
2022-09-20T11:20:04.744Z,14870
2022-09-20T11:25:00.177Z,11071
2022-09-20T11:30:00.182Z,13406
2022-09-20T11:35:00.172Z,11912
2022-09-20T11:40:00.333Z,10597
2022-09-20T11:45:00.181Z,8341
2022-09-20T11:50:00.170Z,6534
2022-09-20T11:55:00.188Z,5816
2022-09-20T12:00:00.221Z,5924
2022-09-20T12:05:00.164Z,6647
2022-09-20T12:10:00.185Z,7470
2022-09-20T12:15:00.184Z,9445
2022-09-20T12:20:00.224Z,10600
2022-09-20T12:25:00.184Z,13240
2022-09-20T12:30:00.189Z,13378
2022-09-20T12:35:00.189Z,17418
2022-09-20T12:40:00.258Z,12269
2022-09-20T12:45:00.159Z,6598
2022-09-20T12:50:00.178Z,3617
2022-09-20T12:55:04.611Z,3374
2022-09-20T13:00:00.211Z,4822
2022-09-20T13:05:00.191Z,6864
2022-09-20T13:10:00.171Z,8686
2022-09-20T13:15:00.169Z,10378
2022-09-20T13:20:00.175Z,8179
2022-09-20T13:25:00.193Z,8696
2022-09-20T13:30:00.182Z,9770
2022-09-20T13:35:00.183Z,54263
2022-09-20T13:40:00.307Z,58264
2022-09-20T13:45:00.193Z,61320
2022-09-20T13:50:00.195Z,47995
2022-09-20T13:55:00.171Z,58966
2022-09-20T14:00:00.209Z,65133
2022-09-20T14:05:00.148Z,65133
2022-09-20T14:10:00.283Z,65133
2022-09-20T14:15:00.188Z,65133
2022-09-20T14:20:00.219Z,65133
2022-09-20T14:25:00.217Z,65133
2022-09-20T14:30:00.199Z,65133
2022-09-20T14:35:00.216Z,72828
2022-09-20T14:40:00.269Z,42589
2022-09-20T14:45:00.184Z,29040
2022-09-20T14:50:00.346Z,30521
2022-09-20T14:55:00.234Z,39210
2022-09-20T15:00:00.342Z,22243
2022-09-20T15:10:00.227Z,57253
2022-09-20T15:15:00.199Z,77839
2022-09-20T15:20:00.206Z,77839
2022-09-20T15:25:00.209Z,61617
2022-09-20T15:30:00.189Z,69375
2022-09-20T15:35:00.188Z,13925
2022-09-20T15:40:00.289Z,8987
2022-09-20T15:45:00.211Z,72895
2022-09-20T15:50:00.262Z,72344
2022-09-20T15:55:00.203Z,72344
2022-09-20T16:00:00.281Z,72344
2022-09-20T16:05:00.231Z,64402
2022-09-20T16:10:00.224Z,64402
2022-09-20T16:15:00.184Z,62980
2022-09-20T16:20:00.215Z,62980
2022-09-20T16:25:00.197Z,55950
2022-09-20T16:30:00.217Z,7534
2022-09-20T16:35:00.274Z,5665
2022-09-20T16:40:00.292Z,4729
2022-09-20T16:45:00.224Z,4481
2022-09-20T16:50:00.173Z,4213
2022-09-20T16:55:00.206Z,3987
2022-09-20T17:00:00.248Z,3333
2022-09-20T17:05:00.327Z,2792
2022-09-20T17:10:00.201Z,2198
2022-09-20T17:15:00.209Z,1949
2022-09-20T17:20:00.203Z,1453
2022-09-20T17:25:00.176Z,1018
2022-09-20T17:30:00.218Z,636
2022-09-20T17:35:00.199Z,502
2022-09-20T17:40:00.296Z,350
2022-09-20T17:45:00.197Z,226
2022-09-20T17:50:00.201Z,138
2022-09-20T17:55:00.211Z,82
2022-09-20T18:00:00.223Z,37
2022-09-20T18:05:00.213Z,17
2022-09-20T18:10:00.192Z,8
2022-09-20T18:15:00.199Z,4
2022-09-20T18:20:00.208Z,3
2022-09-20T18:25:00.268Z,2
2022-09-20T18:30:00.199Z,0
2022-09-20T18:35:00.186Z,0
2022-09-20T18:40:00.342Z,0
2022-09-20T18:45:00.184Z,0
2022-09-20T18:50:00.212Z,0
2022-09-20T18:55:00.215Z,0
2022-09-20T19:00:03.695Z,0
2022-09-20T19:05:00.195Z,0
2022-09-20T19:10:00.188Z,0
2022-09-20T19:15:00.196Z,0
2022-09-20T19:20:00.198Z,0
2022-09-20T19:25:00.208Z,0
2022-09-20T19:30:00.192Z,0
2022-09-20T19:35:00.185Z,0
2022-09-20T19:40:00.382Z,0
2022-09-20T19:45:00.201Z,0
2022-09-20T19:50:00.179Z,0
2022-09-20T19:55:00.194Z,0
2022-09-20T20:00:00.270Z,0
2022-09-20T20:05:00.207Z,0
2022-09-20T20:10:00.162Z,0
2022-09-20T20:15:00.182Z,0
2022-09-20T20:20:00.189Z,0
2022-09-20T20:25:00.168Z,0
2022-09-20T20:30:00.186Z,0
2022-09-20T20:35:00.157Z,0
2022-09-20T20:40:00.305Z,0
2022-09-20T20:45:00.162Z,0
2022-09-20T20:50:00.167Z,0
2022-09-20T20:55:00.166Z,0
2022-09-20T21:00:00.206Z,0
2022-09-20T21:05:00.170Z,0
2022-09-20T21:10:00.210Z,0
2022-09-20T21:15:00.165Z,0
2022-09-20T21:20:00.198Z,0
2022-09-20T21:25:00.174Z,0
2022-09-20T21:30:00.209Z,0
2022-09-20T21:35:00.162Z,0
2022-09-20T21:40:00.302Z,0
2022-09-20T21:45:00.189Z,0
2022-09-20T21:50:00.191Z,0
2022-09-20T21:55:00.187Z,0
2022-09-20T22:00:00.241Z,0
2022-09-20T22:05:00.199Z,0
2022-09-20T22:10:00.186Z,0
2022-09-20T22:15:00.184Z,0
2022-09-20T22:20:00.227Z,0
2022-09-20T22:25:00.224Z,0
2022-09-20T22:30:04.609Z,0
2022-09-20T22:35:00.205Z,0
2022-09-20T22:40:00.309Z,0
2022-09-20T22:45:00.265Z,0
2022-09-20T22:50:00.213Z,0
2022-09-20T22:55:00.239Z,0
2022-09-20T23:00:00.237Z,0
2022-09-20T23:05:00.228Z,0
2022-09-20T23:10:00.222Z,0
2022-09-20T23:15:00.251Z,0
2022-09-20T23:20:00.272Z,0
2022-09-20T23:25:00.232Z,0
2022-09-20T23:30:00.250Z,0
2022-09-20T23:35:00.225Z,0
2022-09-20T23:40:00.380Z,0
2022-09-20T23:45:00.252Z,0
2022-09-20T23:50:00.221Z,0
2022-09-20T23:55:00.265Z,0
